sensor_id;sensor_type;location;lat;lon;timestamp;pressure;altitude;pressure_sealevel;temperature;humidity
68594;BME280;55563;52.416;13.548;2023-04-24T00:01:14;99912.31;;;10.21;100.00
68594;BME280;55563;52.416;13.548;2023-04-24T00:03:41;99911.28;;;10.17;100.00
68594;BME280;55563;52.416;13.548;2023-04-24T00:05:49;99894.47;;;10.18;100.00
68594;BME280;55563;52.416;13.548;2023-04-24T00:08:18;99896.56;;;10.21;100.00
68594;BME280;55563;52.416;13.548;2023-04-24T00:10:25;99899.22;;;10.16;100.00
68594;BME280;55563;52.416;13.548;2023-04-24T00:12:52;99889.22;;;10.13;100.00
68594;BME280;55563;52.416;13.548;2023-04-24T00:15:20;99893.69;;;10.12;100.00
68594;BME280;55563;52.416;13.548;2023-04-24T00:17:28;99889.53;;;10.06;100.00
68594;BME280;55563;52.416;13.548;2023-04-24T00:19:49;99888.75;;;10.05;100.00
68594;BME280;55563;52.416;13.548;2023-04-24T00:21:58;99885.38;;;10.00;100.00
68594;BME280;55563;52.416;13.548;2023-04-24T00:24:18;99876.44;;;10.01;100.00
68594;BME280;55563;52.416;13.548;2023-04-24T00:26:26;99872.28;;;9.95;100.00
68594;BME280;55563;52.416;13.548;2023-04-24T00:28:53;99871.97;;;10.01;100.00
68594;BME280;55563;52.416;13.548;2023-04-24T00:31:08;99878.56;;;9.94;100.00
68594;BME280;55563;52.416;13.548;2023-04-24T00:33:17;99860.16;;;9.99;100.00
68594;BME280;55563;52.416;13.548;2023-04-24T00:35:32;99864.63;;;9.98;100.00
68594;BME280;55563;52.416;13.548;2023-04-24T00:37:34;99865.44;;;9.94;100.00
68594;BME280;55563;52.416;13.548;2023-04-24T00:39:36;99854.97;;;9.89;100.00
68594;BME280;55563;52.416;13.548;2023-04-24T00:41:38;99857.34;;;9.90;100.00
68594;BME280;55563;52.416;13.548;2023-04-24T00:43:40;99853.94;;;9.90;100.00
68594;BME280;55563;52.416;13.548;2023-04-24T00:45:41;99851.03;;;9.91;100.00
68594;BME280;55563;52.416;13.548;2023-04-24T00:47:44;99858.91;;;9.91;100.00
68594;BME280;55563;52.416;13.548;2023-04-24T00:49:46;99851.31;;;9.90;100.00
68594;BME280;55563;52.416;13.548;2023-04-24T00:51:47;99856.06;;;9.88;100.00
68594;BME280;55563;52.416;13.548;2023-04-24T00:53:51;99851.34;;;9.85;100.00
68594;BME280;55563;52.416;13.548;2023-04-24T00:55:54;99853.69;;;9.86;100.00
68594;BME280;55563;52.416;13.548;2023-04-24T00:57:56;99848.44;;;9.86;100.00
68594;BME280;55563;52.416;13.548;2023-04-24T00:59:59;99846.59;;;9.87;100.00
68594;BME280;55563;52.416;13.548;2023-04-24T01:02:01;99841.63;;;9.85;100.00
68594;BME280;55563;52.416;13.548;2023-04-24T01:04:03;99845.31;;;9.84;100.00
68594;BME280;55563;52.416;13.548;2023-04-24T01:06:09;99841.09;;;9.83;100.00
68594;BME280;55563;52.416;13.548;2023-04-24T01:08:14;99837.69;;;9.88;100.00
68594;BME280;55563;52.416;13.548;2023-04-24T01:10:16;99844.78;;;9.87;100.00
68594;BME280;55563;52.416;13.548;2023-04-24T01:12:19;99854.69;;;9.95;100.00
68594;BME280;55563;52.416;13.548;2023-04-24T01:14:27;99850.00;;;9.92;100.00
68594;BME280;55563;52.416;13.548;2023-04-24T01:16:41;99848.91;;;9.93;100.00
68594;BME280;55563;52.416;13.548;2023-04-24T01:18:43;99842.13;;;9.92;100.00
68594;BME280;55563;52.416;13.548;2023-04-24T01:20:46;99846.00;;;10.00;100.00
68594;BME280;55563;52.416;13.548;2023-04-24T01:22:48;99845.41;;;10.08;100.00
68594;BME280;55563;52.416;13.548;2023-04-24T01:24:51;99841.25;;;10.02;100.00
68594;BME280;55563;52.416;13.548;2023-04-24T01:26:54;99842.56;;;9.99;100.00
68594;BME280;55563;52.416;13.548;2023-04-24T01:28:58;99849.09;;;10.07;100.00
68594;BME280;55563;52.416;13.548;2023-04-24T01:30:59;99844.56;;;10.13;100.00
68594;BME280;55563;52.416;13.548;2023-04-24T01:33:02;99842.28;;;10.06;100.00
68594;BME280;55563;52.416;13.548;2023-04-24T01:35:07;99838.63;;;10.02;100.00
68594;BME280;55563;52.416;13.548;2023-04-24T01:37:10;99830.19;;;10.05;100.00
68594;BME280;55563;52.416;13.548;2023-04-24T01:39:31;99831.78;;;10.06;100.00
68594;BME280;55563;52.416;13.548;2023-04-24T01:41:47;99833.09;;;10.03;100.00
68594;BME280;55563;52.416;13.548;2023-04-24T01:44:01;99834.44;;;10.01;100.00
68594;BME280;55563;52.416;13.548;2023-04-24T01:46:16;99832.56;;;10.06;100.00
68594;BME280;55563;52.416;13.548;2023-04-24T01:48:30;99826.81;;;9.99;100.00
68594;BME280;55563;52.416;13.548;2023-04-24T01:50:45;99818.94;;;9.99;100.00
68594;BME280;55563;52.416;13.548;2023-04-24T01:53:06;99826.81;;;9.99;100.00
68594;BME280;55563;52.416;13.548;2023-04-24T01:55:23;99819.47;;;10.01;100.00
68594;BME280;55563;52.416;13.548;2023-04-24T01:57:37;99812.91;;;9.99;100.00
68594;BME280;55563;52.416;13.548;2023-04-24T01:59:51;99815.50;;;10.04;100.00
68594;BME280;55563;52.416;13.548;2023-04-24T02:02:05;99813.50;;;9.91;100.00
68594;BME280;55563;52.416;13.548;2023-04-24T02:04:19;99810.63;;;9.92;100.00
68594;BME280;55563;52.416;13.548;2023-04-24T02:06:33;99809.53;;;9.93;100.00
68594;BME280;55563;52.416;13.548;2023-04-24T02:08:47;99809.03;;;9.91;100.00
68594;BME280;55563;52.416;13.548;2023-04-24T02:11:09;99809.53;;;9.93;100.00
68594;BME280;55563;52.416;13.548;2023-04-24T02:13:24;99808.00;;;9.92;100.00
68594;BME280;55563;52.416;13.548;2023-04-24T02:15:38;99801.34;;;10.00;100.00
68594;BME280;55563;52.416;13.548;2023-04-24T02:17:53;99813.41;;;10.06;100.00
68594;BME280;55563;52.416;13.548;2023-04-24T02:20:13;99807.63;;;10.04;100.00
68594;BME280;55563;52.416;13.548;2023-04-24T02:22:28;99803.16;;;10.04;100.00
68594;BME280;55563;52.416;13.548;2023-04-24T02:24:43;99787.16;;;10.06;100.00
68594;BME280;55563;52.416;13.548;2023-04-24T02:26:57;99794.00;;;10.02;100.00
68594;BME280;55563;52.416;13.548;2023-04-24T02:29:11;99795.56;;;10.03;100.00
68594;BME280;55563;52.416;13.548;2023-04-24T02:31:25;99797.91;;;10.04;100.00
68594;BME280;55563;52.416;13.548;2023-04-24T02:33:39;99801.03;;;10.12;100.00
68594;BME280;55563;52.416;13.548;2023-04-24T02:35:53;99803.34;;;10.18;100.00
68594;BME280;55563;52.416;13.548;2023-04-24T02:38:14;99801.19;;;10.25;100.00
68594;BME280;55563;52.416;13.548;2023-04-24T02:40:28;99795.59;;;10.32;100.00
68594;BME280;55563;52.416;13.548;2023-04-24T02:43:07;99793.53;;;10.29;100.00
68594;BME280;55563;52.416;13.548;2023-04-24T02:45:22;99793.81;;;10.27;100.00
68594;BME280;55563;52.416;13.548;2023-04-24T02:47:43;99804.03;;;10.29;100.00
68594;BME280;55563;52.416;13.548;2023-04-24T02:49:50;99804.50;;;10.36;100.00
68594;BME280;55563;52.416;13.548;2023-04-24T02:52:11;99800.31;;;10.35;100.00
68594;BME280;55563;52.416;13.548;2023-04-24T02:54:18;99795.66;;;10.27;100.00
68594;BME280;55563;52.416;13.548;2023-04-24T02:56:39;99793.75;;;10.32;100.00
68594;BME280;55563;52.416;13.548;2023-04-24T02:58:53;99796.63;;;10.36;100.00
68594;BME280;55563;52.416;13.548;2023-04-24T03:01:15;99790.59;;;10.35;100.00
68594;BME280;55563;52.416;13.548;2023-04-24T03:03:22;99790.31;;;10.37;100.00
68594;BME280;55563;52.416;13.548;2023-04-24T03:05:43;99788.75;;;10.36;100.00
68594;BME280;55563;52.416;13.548;2023-04-24T03:07:57;99786.34;;;10.39;100.00
68594;BME280;55563;52.416;13.548;2023-04-24T03:10:18;99784.78;;;10.38;100.00
68594;BME280;55563;52.416;13.548;2023-04-24T03:12:32;99798.91;;;10.42;100.00
68594;BME280;55563;52.416;13.548;2023-04-24T03:14:54;99799.16;;;10.46;100.00
68594;BME280;55563;52.416;13.548;2023-04-24T03:17:08;99802.84;;;10.45;100.00
68594;BME280;55563;52.416;13.548;2023-04-24T03:19:22;99788.94;;;10.44;100.00
68594;BME280;55563;52.416;13.548;2023-04-24T03:21:43;99806.25;;;10.45;100.00
68594;BME280;55563;52.416;13.548;2023-04-24T03:23:58;99799.41;;;10.49;100.00
68594;BME280;55563;52.416;13.548;2023-04-24T03:26:12;99805.91;;;10.52;100.00
68594;BME280;55563;52.416;13.548;2023-04-24T03:28:40;99803.91;;;10.44;100.00
68594;BME280;55563;52.416;13.548;2023-04-24T03:30:54;99795.25;;;10.43;100.00
68594;BME280;55563;52.416;13.548;2023-04-24T03:33:19;99799.72;;;10.43;100.00
68594;BME280;55563;52.416;13.548;2023-04-24T03:35:35;99789.72;;;10.45;100.00
68594;BME280;55563;52.416;13.548;2023-04-24T03:38:03;99792.34;;;10.45;100.00
68594;BME280;55563;52.416;13.548;2023-04-24T03:40:42;99793.41;;;10.44;100.00
68594;BME280;55563;52.416;13.548;2023-04-24T03:43:16;99795.72;;;10.45;100.00
68594;BME280;55563;52.416;13.548;2023-04-24T03:45:23;99797.03;;;10.48;100.00
68594;BME280;55563;52.416;13.548;2023-04-24T03:47:51;99795.69;;;10.50;100.00
68594;BME280;55563;52.416;13.548;2023-04-24T03:49:59;99797.78;;;10.54;100.00
68594;BME280;55563;52.416;13.548;2023-04-24T03:52:27;99811.69;;;10.54;100.00
68594;BME280;55563;52.416;13.548;2023-04-24T03:54:34;99814.03;;;10.56;100.00
68594;BME280;55563;52.416;13.548;2023-04-24T03:57:04;99806.50;;;10.49;100.00
68594;BME280;55563;52.416;13.548;2023-04-24T03:59:37;99813.31;;;10.50;100.00
68594;BME280;55563;52.416;13.548;2023-04-24T04:01:57;99808.56;;;10.52;100.00
68594;BME280;55563;52.416;13.548;2023-04-24T04:04:12;99809.28;;;10.58;100.00
68594;BME280;55563;52.416;13.548;2023-04-24T04:06:26;99810.34;;;10.57;100.00
68594;BME280;55563;52.416;13.548;2023-04-24T04:08:41;99797.16;;;10.62;100.00
68594;BME280;55563;52.416;13.548;2023-04-24T04:10:55;99801.84;;;10.65;100.00
68594;BME280;55563;52.416;13.548;2023-04-24T04:13:09;99794.03;;;10.60;100.00
68594;BME280;55563;52.416;13.548;2023-04-24T04:15:23;99798.72;;;10.63;100.00
68594;BME280;55563;52.416;13.548;2023-04-24T04:17:37;99793.97;;;10.65;100.00
68594;BME280;55563;52.416;13.548;2023-04-24T04:19:51;99798.94;;;10.66;100.00
68594;BME280;55563;52.416;13.548;2023-04-24T04:22:05;99800.25;;;10.69;100.00
68594;BME280;55563;52.416;13.548;2023-04-24T04:24:23;99801.09;;;10.64;100.00
68594;BME280;55563;52.416;13.548;2023-04-24T04:26:33;99800.25;;;10.69;100.00
68594;BME280;55563;52.416;13.548;2023-04-24T04:28:56;99792.59;;;10.72;100.00
68594;BME280;55563;52.416;13.548;2023-04-24T04:31:04;99793.38;;;10.73;100.00
68594;BME280;55563;52.416;13.548;2023-04-24T04:33:32;99800.47;;;10.72;100.00
68594;BME280;55563;52.416;13.548;2023-04-24T04:36:00;99803.31;;;10.76;100.00
68594;BME280;55563;52.416;13.548;2023-04-24T04:38:12;99799.91;;;10.75;100.00
68594;BME280;55563;52.416;13.548;2023-04-24T04:40:47;99799.91;;;10.75;100.00
68594;BME280;55563;52.416;13.548;2023-04-24T04:43:19;99803.03;;;10.77;100.00
68594;BME280;55563;52.416;13.548;2023-04-24T04:45:28;99803.25;;;10.81;100.00
68594;BME280;55563;52.416;13.548;2023-04-24T04:48:09;99807.41;;;10.87;100.00
68594;BME280;55563;52.416;13.548;2023-04-24T04:50:20;99815.50;;;10.90;100.00
68594;BME280;55563;52.416;13.548;2023-04-24T04:52:47;99820.19;;;10.93;100.00
68594;BME280;55563;52.416;13.548;2023-04-24T04:55:01;99818.03;;;11.01;100.00
68594;BME280;55563;52.416;13.548;2023-04-24T04:57:35;99817.41;;;11.09;100.00
68594;BME280;55563;52.416;13.548;2023-04-24T04:59:49;99813.66;;;11.15;100.00
68594;BME280;55563;52.416;13.548;2023-04-24T05:02:17;99816.72;;;11.22;100.00
68594;BME280;55563;52.416;13.548;2023-04-24T05:04:31;99808.00;;;11.26;100.00
68594;BME280;55563;52.416;13.548;2023-04-24T05:06:38;99805.00;;;11.33;100.00
68594;BME280;55563;52.416;13.548;2023-04-24T05:09:09;99814.41;;;11.39;100.00
68594;BME280;55563;52.416;13.548;2023-04-24T05:11:34;99815.59;;;11.47;100.00
68594;BME280;55563;52.416;13.548;2023-04-24T05:13:48;99807.09;;;11.55;100.00
68594;BME280;55563;52.416;13.548;2023-04-24T05:16:10;99819.53;;;11.68;100.00
68594;BME280;55563;52.416;13.548;2023-04-24T05:18:25;99805.97;;;11.79;100.00
68594;BME280;55563;52.416;13.548;2023-04-24T05:20:40;99803.88;;;11.95;100.00
68594;BME280;55563;52.416;13.548;2023-04-24T05:22:55;99801.97;;;12.14;100.00
68594;BME280;55563;52.416;13.548;2023-04-24T05:25:10;99791.56;;;14.04;100.00
68594;BME280;55563;52.416;13.548;2023-04-24T05:27:33;99790.69;;;14.70;100.00
68594;BME280;55563;52.416;13.548;2023-04-24T05:29:46;99789.94;;;13.72;100.00
68594;BME280;55563;52.416;13.548;2023-04-24T05:32:14;99790.03;;;13.67;100.00
68594;BME280;55563;52.416;13.548;2023-04-24T05:34:28;99800.59;;;14.56;100.00
68594;BME280;55563;52.416;13.548;2023-04-24T05:36:42;99794.19;;;16.81;100.00
68594;BME280;55563;52.416;13.548;2023-04-24T05:38:56;99799.03;;;14.55;100.00
68594;BME280;55563;52.416;13.548;2023-04-24T05:41:12;99792.28;;;13.74;100.00
68594;BME280;55563;52.416;13.548;2023-04-24T05:43:26;99799.47;;;13.82;100.00
68594;BME280;55563;52.416;13.548;2023-04-24T05:45:40;99807.25;;;14.31;100.00
68594;BME280;55563;52.416;13.548;2023-04-24T05:47:54;99800.28;;;14.05;100.00
68594;BME280;55563;52.416;13.548;2023-04-24T05:50:15;99799.72;;;17.47;100.00
68594;BME280;55563;52.416;13.548;2023-04-24T05:52:22;99808.66;;;19.34;100.00
68594;BME280;55563;52.416;13.548;2023-04-24T05:54:46;99799.41;;;19.84;100.00
68594;BME280;55563;52.416;13.548;2023-04-24T05:57:04;99802.16;;;17.81;100.00
68594;BME280;55563;52.416;13.548;2023-04-24T05:59:30;99808.00;;;16.57;100.00
68594;BME280;55563;52.416;13.548;2023-04-24T06:01:44;99813.19;;;16.53;100.00
68594;BME280;55563;52.416;13.548;2023-04-24T06:04:05;99809.81;;;16.27;100.00
68594;BME280;55563;52.416;13.548;2023-04-24T06:06:20;99813.47;;;15.97;100.00
68594;BME280;55563;52.416;13.548;2023-04-24T06:08:41;99819.44;;;16.95;100.00
68594;BME280;55563;52.416;13.548;2023-04-24T06:10:57;99818.16;;;18.38;100.00
68594;BME280;55563;52.416;13.548;2023-04-24T06:13:11;99824.00;;;19.01;100.00
68594;BME280;55563;52.416;13.548;2023-04-24T06:15:40;99821.22;;;19.74;100.00
68594;BME280;55563;52.416;13.548;2023-04-24T06:18:10;99822.31;;;21.07;97.11
68594;BME280;55563;52.416;13.548;2023-04-24T06:20:24;99818.13;;;22.40;88.66
68594;BME280;55563;52.416;13.548;2023-04-24T06:22:45;99815.75;;;20.38;97.47
68594;BME280;55563;52.416;13.548;2023-04-24T06:24:52;99825.00;;;17.32;100.00
68594;BME280;55563;52.416;13.548;2023-04-24T06:27:13;99836.06;;;16.75;100.00
68594;BME280;55563;52.416;13.548;2023-04-24T06:29:21;99830.09;;;16.32;100.00
68594;BME280;55563;52.416;13.548;2023-04-24T06:31:42;99829.22;;;17.54;100.00
68594;BME280;55563;52.416;13.548;2023-04-24T06:33:51;99830.88;;;18.78;100.00
68594;BME280;55563;52.416;13.548;2023-04-24T06:36:19;99831.44;;;18.59;100.00
68594;BME280;55563;52.416;13.548;2023-04-24T06:38:26;99839.41;;;20.39;100.00
68594;BME280;55563;52.416;13.548;2023-04-24T06:40:47;99834.63;;;22.42;83.81
68594;BME280;55563;52.416;13.548;2023-04-24T06:42:54;99842.13;;;23.54;75.68
68594;BME280;55563;52.416;13.548;2023-04-24T06:45:18;99829.84;;;24.64;67.66
68594;BME280;55563;52.416;13.548;2023-04-24T06:47:25;99838.25;;;23.25;76.99
68594;BME280;55563;52.416;13.548;2023-04-24T06:49:53;99825.97;;;23.84;68.58
68594;BME280;55563;52.416;13.548;2023-04-24T06:52:21;99837.22;;;21.77;79.96
68594;BME280;55563;52.416;13.548;2023-04-24T06:54:29;99826.59;;;22.42;81.41
68594;BME280;55563;52.416;13.548;2023-04-24T06:56:50;99830.22;;;20.25;98.11
68594;BME280;55563;52.416;13.548;2023-04-24T07:00:01;99828.25;;;21.31;90.16
68594;BME280;55563;52.416;13.548;2023-04-24T07:02:24;99829.59;;;20.43;94.75
68594;BME280;55563;52.416;13.548;2023-04-24T07:04:31;99830.81;;;21.44;87.86
68594;BME280;55563;52.416;13.548;2023-04-24T07:06:59;99817.28;;;23.04;78.46
68594;BME280;55563;52.416;13.548;2023-04-24T07:09:27;99814.25;;;22.83;77.07
68594;BME280;55563;52.416;13.548;2023-04-24T07:11:35;99821.13;;;25.36;66.85
68594;BME280;55563;52.416;13.548;2023-04-24T07:13:56;99823.97;;;25.64;58.40
68594;BME280;55563;52.416;13.548;2023-04-24T07:16:03;99822.50;;;25.08;54.87
68594;BME280;55563;52.416;13.548;2023-04-24T07:18:31;99827.06;;;24.50;62.24
68594;BME280;55563;52.416;13.548;2023-04-24T07:21:00;99812.97;;;26.79;56.22
68594;BME280;55563;52.416;13.548;2023-04-24T07:23:07;99820.22;;;24.59;59.54
68594;BME280;55563;52.416;13.548;2023-04-24T07:25:35;99820.75;;;24.31;60.35
68594;BME280;55563;52.416;13.548;2023-04-24T07:28:12;99827.84;;;25.05;57.03
68594;BME280;55563;52.416;13.548;2023-04-24T07:30:40;99831.06;;;26.22;53.52
68594;BME280;55563;52.416;13.548;2023-04-24T07:33:09;99828.63;;;22.49;65.13
68594;BME280;55563;52.416;13.548;2023-04-24T07:35:26;99829.06;;;23.26;67.34
68594;BME280;55563;52.416;13.548;2023-04-24T07:37:48;99833.19;;;20.98;81.56
68594;BME280;55563;52.416;13.548;2023-04-24T07:39:55;99835.97;;;20.55;85.33
68594;BME280;55563;52.416;13.548;2023-04-24T07:42:17;99831.63;;;19.39;96.31
68594;BME280;55563;52.416;13.548;2023-04-24T07:44:24;99837.75;;;19.27;100.00
68594;BME280;55563;52.416;13.548;2023-04-24T07:46:52;99827.94;;;21.52;78.60
68594;BME280;55563;52.416;13.548;2023-04-24T07:49:20;99823.16;;;20.60;90.31
68594;BME280;55563;52.416;13.548;2023-04-24T07:51:28;99818.47;;;19.18;96.69
68594;BME280;55563;52.416;13.548;2023-04-24T07:53:51;99822.19;;;19.81;91.42
68594;BME280;55563;52.416;13.548;2023-04-24T07:55:58;99817.06;;;19.61;97.36
68594;BME280;55563;52.416;13.548;2023-04-24T07:58:19;99814.44;;;19.36;93.92
68594;BME280;55563;52.416;13.548;2023-04-24T08:00:26;99815.69;;;18.90;100.00
68594;BME280;55563;52.416;13.548;2023-04-24T08:02:54;99818.84;;;18.35;100.00
68594;BME280;55563;52.416;13.548;2023-04-24T08:05:01;99819.81;;;18.30;100.00
68594;BME280;55563;52.416;13.548;2023-04-24T08:07:29;99821.84;;;18.46;100.00
68594;BME280;55563;52.416;13.548;2023-04-24T08:09:36;99822.97;;;18.12;100.00
68594;BME280;55563;52.416;13.548;2023-04-24T08:11:45;99826.31;;;17.47;100.00
68594;BME280;55563;52.416;13.548;2023-04-24T08:13:47;99822.44;;;18.18;100.00
68594;BME280;55563;52.416;13.548;2023-04-24T08:15:56;99824.69;;;17.54;100.00
68594;BME280;55563;52.416;13.548;2023-04-24T08:18:04;99820.50;;;17.74;100.00
68594;BME280;55563;52.416;13.548;2023-04-24T08:20:32;99823.78;;;18.12;100.00
68594;BME280;55563;52.416;13.548;2023-04-24T08:23:00;99830.34;;;18.27;100.00
68594;BME280;55563;52.416;13.548;2023-04-24T08:25:09;99836.75;;;18.59;100.00
68594;BME280;55563;52.416;13.548;2023-04-24T08:27:30;99826.66;;;18.19;100.00
68594;BME280;55563;52.416;13.548;2023-04-24T08:29:37;99818.38;;;18.78;100.00
68594;BME280;55563;52.416;13.548;2023-04-24T08:31:58;99815.56;;;18.62;100.00
68594;BME280;55563;52.416;13.548;2023-04-24T08:34:05;99811.53;;;18.44;100.00
68594;BME280;55563;52.416;13.548;2023-04-24T08:36:33;99816.88;;;19.29;100.00
68594;BME280;55563;52.416;13.548;2023-04-24T08:38:48;99817.81;;;18.97;94.46
68594;BME280;55563;52.416;13.548;2023-04-24T08:41:01;99822.13;;;19.13;95.13
68594;BME280;55563;52.416;13.548;2023-04-24T08:43:16;99817.53;;;19.50;95.73
68594;BME280;55563;52.416;13.548;2023-04-24T08:45:32;99816.75;;;19.38;85.92
68594;BME280;55563;52.416;13.548;2023-04-24T08:47:47;99816.81;;;19.01;94.57
68594;BME280;55563;52.416;13.548;2023-04-24T08:50:09;99825.91;;;18.64;92.35
68594;BME280;55563;52.416;13.548;2023-04-24T08:52:18;99818.00;;;18.67;93.50
68594;BME280;55563;52.416;13.548;2023-04-24T08:54:39;99826.03;;;18.47;95.37
68594;BME280;55563;52.416;13.548;2023-04-24T08:56:47;99824.88;;;18.56;95.92
68594;BME280;55563;52.416;13.548;2023-04-24T08:59:08;99827.66;;;18.72;100.00
68594;BME280;55563;52.416;13.548;2023-04-24T09:01:15;99823.69;;;19.02;96.77
68594;BME280;55563;52.416;13.548;2023-04-24T09:03:36;99827.47;;;19.13;97.61
68594;BME280;55563;52.416;13.548;2023-04-24T09:05:52;99825.91;;;19.12;98.99
68594;BME280;55563;52.416;13.548;2023-04-24T09:08:14;99826.25;;;18.75;100.00
68594;BME280;55563;52.416;13.548;2023-04-24T09:10:22;99825.44;;;18.62;100.00
68594;BME280;55563;52.416;13.548;2023-04-24T09:12:43;99823.06;;;18.03;100.00
68594;BME280;55563;52.416;13.548;2023-04-24T09:14:51;99825.66;;;18.24;100.00
68594;BME280;55563;52.416;13.548;2023-04-24T09:17:12;99825.00;;;17.94;100.00
68594;BME280;55563;52.416;13.548;2023-04-24T09:19:25;99828.94;;;18.09;98.49
68594;BME280;55563;52.416;13.548;2023-04-24T09:21:39;99823.97;;;18.07;99.65
68594;BME280;55563;52.416;13.548;2023-04-24T09:24:01;99830.22;;;18.23;100.00
68594;BME280;55563;52.416;13.548;2023-04-24T09:26:14;99829.69;;;17.97;100.00
68594;BME280;55563;52.416;13.548;2023-04-24T09:28:34;99825.31;;;17.60;100.00
68594;BME280;55563;52.416;13.548;2023-04-24T09:33:16;99830.88;;;17.67;100.00
68594;BME280;55563;52.416;13.548;2023-04-24T09:35:40;99833.69;;;17.41;100.00
68594;BME280;55563;52.416;13.548;2023-04-24T09:37:48;99834.09;;;17.22;100.00
68594;BME280;55563;52.416;13.548;2023-04-24T09:40:21;99835.78;;;17.35;100.00
68594;BME280;55563;52.416;13.548;2023-04-24T09:42:53;99842.72;;;17.19;100.00
68594;BME280;55563;52.416;13.548;2023-04-24T09:45:01;99840.44;;;17.09;100.00
68594;BME280;55563;52.416;13.548;2023-04-24T09:47:21;99832.75;;;16.87;100.00
68594;BME280;55563;52.416;13.548;2023-04-24T09:49:30;99835.84;;;17.18;100.00
68594;BME280;55563;52.416;13.548;2023-04-24T09:52:09;99828.72;;;17.10;100.00
68594;BME280;55563;52.416;13.548;2023-04-24T09:54:18;99827.50;;;17.28;100.00
68594;BME280;55563;52.416;13.548;2023-04-24T09:56:42;99829.50;;;17.40;100.00
68594;BME280;55563;52.416;13.548;2023-04-24T09:58:51;99837.50;;;17.52;100.00
68594;BME280;55563;52.416;13.548;2023-04-24T10:01:34;99837.84;;;17.51;100.00
68594;BME280;55563;52.416;13.548;2023-04-24T10:04:04;99832.75;;;17.16;100.00
68594;BME280;55563;52.416;13.548;2023-04-24T10:06:18;99839.22;;;17.07;100.00
68594;BME280;55563;52.416;13.548;2023-04-24T10:08:34;99835.97;;;17.30;100.00
68594;BME280;55563;52.416;13.548;2023-04-24T10:10:49;99830.06;;;17.25;100.00
68594;BME280;55563;52.416;13.548;2023-04-24T10:13:03;99834.25;;;17.26;100.00
68594;BME280;55563;52.416;13.548;2023-04-24T10:15:18;99832.75;;;17.66;100.00
68594;BME280;55563;52.416;13.548;2023-04-24T10:17:28;99831.38;;;17.81;100.00
68594;BME280;55563;52.416;13.548;2023-04-24T10:19:48;99841.81;;;17.44;100.00
68594;BME280;55563;52.416;13.548;2023-04-24T10:21:57;99833.63;;;17.29;100.00
68594;BME280;55563;52.416;13.548;2023-04-24T10:24:25;99834.72;;;17.28;100.00
68594;BME280;55563;52.416;13.548;2023-04-24T10:26:53;99835.03;;;16.97;100.00
68594;BME280;55563;52.416;13.548;2023-04-24T10:29:00;99840.44;;;17.09;100.00
68594;BME280;55563;52.416;13.548;2023-04-24T10:31:24;99838.72;;;17.63;100.00
68594;BME280;55563;52.416;13.548;2023-04-24T10:33:32;99827.53;;;18.23;100.00
68594;BME280;55563;52.416;13.548;2023-04-24T10:35:55;99833.78;;;18.85;100.00
68594;BME280;55563;52.416;13.548;2023-04-24T10:38:07;99821.78;;;18.54;100.00
68594;BME280;55563;52.416;13.548;2023-04-24T10:40:32;99824.06;;;18.44;100.00
68594;BME280;55563;52.416;13.548;2023-04-24T10:42:40;99826.53;;;18.61;100.00
68594;BME280;55563;52.416;13.548;2023-04-24T10:45:18;99831.50;;;18.50;100.00
68594;BME280;55563;52.416;13.548;2023-04-24T10:48:04;99829.88;;;17.92;100.00
68594;BME280;55563;52.416;13.548;2023-04-24T10:50:12;99827.16;;;18.01;100.00
68594;BME280;55563;52.416;13.548;2023-04-24T10:52:48;99822.13;;;18.32;100.00
68594;BME280;55563;52.416;13.548;2023-04-24T10:55:56;99818.47;;;17.92;100.00
68594;BME280;55563;52.416;13.548;2023-04-24T11:01:06;99818.47;;;18.24;100.00
68594;BME280;55563;52.416;13.548;2023-04-24T11:03:35;99815.50;;;17.93;100.00
68594;BME280;55563;52.416;13.548;2023-04-24T11:06:05;99808.41;;;18.30;100.00
68594;BME280;55563;52.416;13.548;2023-04-24T11:08:15;99809.72;;;18.69;97.38
68594;BME280;55563;52.416;13.548;2023-04-24T11:10:43;99810.16;;;19.07;95.73
68594;BME280;55563;52.416;13.548;2023-04-24T11:12:51;99819.03;;;18.87;96.10
68594;BME280;55563;52.416;13.548;2023-04-24T11:15:18;99812.59;;;19.12;97.80
68594;BME280;55563;52.416;13.548;2023-04-24T11:17:34;99805.75;;;19.39;92.61
68594;BME280;55563;52.416;13.548;2023-04-24T11:20:06;99808.13;;;19.04;92.67
68594;BME280;55563;52.416;13.548;2023-04-24T11:22:35;99813.59;;;18.96;91.51
68594;BME280;55563;52.416;13.548;2023-04-24T11:27:18;99811.34;;;18.61;92.33
68594;BME280;55563;52.416;13.548;2023-04-24T11:29:59;99811.41;;;17.96;93.85
68594;BME280;55563;52.416;13.548;2023-04-24T11:37:24;99837.50;;;17.31;100.00
68594;BME280;55563;52.416;13.548;2023-04-24T11:39:55;99851.75;;;16.42;100.00
68594;BME280;55563;52.416;13.548;2023-04-24T11:42:23;99849.47;;;15.89;100.00
68594;BME280;55563;52.416;13.548;2023-04-24T11:44:33;99851.19;;;16.02;100.00
68594;BME280;55563;52.416;13.548;2023-04-24T11:46:56;99848.97;;;16.30;100.00
68594;BME280;55563;52.416;13.548;2023-04-24T11:49:03;99852.72;;;16.29;100.00
68594;BME280;55563;52.416;13.548;2023-04-24T11:51:31;99849.25;;;16.37;100.00
68594;BME280;55563;52.416;13.548;2023-04-24T11:53:38;99841.66;;;16.10;100.00
68594;BME280;55563;52.416;13.548;2023-04-24T11:56:06;99850.25;;;16.88;100.00
68594;BME280;55563;52.416;13.548;2023-04-24T11:58:35;99835.50;;;17.28;100.00
68594;BME280;55563;52.416;13.548;2023-04-24T12:00:56;99840.31;;;17.35;100.00
68594;BME280;55563;52.416;13.548;2023-04-24T12:03:11;99831.66;;;17.88;100.00